createdAt,value
2019-02-19T16:57:54.028Z,8.52
2019-02-19T16:58:55.471Z,8.54
2019-02-19T16:59:56.886Z,8.58
2019-02-19T17:00:58.293Z,8.55
2019-02-19T17:01:59.690Z,8.58
2019-02-19T17:03:01.109Z,8.57
2019-02-19T17:04:03.450Z,8.46
2019-02-19T17:05:03.872Z,8.46
2019-02-19T17:06:05.297Z,8.45
2019-02-19T17:07:06.705Z,8.50
2019-02-19T17:08:08.110Z,8.40
2019-02-19T17:09:09.502Z,8.45
2019-02-19T17:10:10.909Z,8.42
2019-02-19T17:11:12.319Z,8.43
2019-02-19T17:12:13.719Z,8.43
2019-02-19T17:13:15.681Z,8.45
2019-02-19T17:14:17.074Z,8.45
2019-02-19T17:15:18.459Z,8.42
2019-02-19T17:16:19.887Z,8.45
2019-02-19T17:17:21.297Z,8.52
2019-02-19T17:18:23.167Z,8.49
2019-02-19T17:19:24.069Z,8.45
2019-02-19T17:20:29.180Z,8.40
2019-02-19T17:21:26.837Z,8.43
2019-02-19T17:22:28.235Z,8.45
2019-02-19T17:23:29.642Z,8.50
2019-02-19T17:24:31.062Z,8.42
2019-02-19T17:25:32.492Z,8.46
2019-02-19T17:26:33.892Z,8.45
2019-02-19T17:27:35.294Z,8.42
2019-02-19T17:28:36.680Z,8.49
2019-02-19T17:29:39.028Z,8.46
2019-02-19T17:30:40.427Z,8.46
2019-02-19T17:31:41.854Z,8.43
2019-02-19T17:32:43.243Z,8.52
2019-02-19T17:33:44.648Z,8.42
2019-02-19T17:34:46.037Z,8.40
2019-02-19T17:35:47.433Z,8.47
2019-02-19T17:36:48.829Z,8.40
2019-02-19T17:37:50.257Z,8.46
2019-02-19T17:38:51.671Z,8.42
2019-02-19T17:39:53.063Z,8.37
2019-02-19T17:40:54.476Z,8.34
2019-02-19T17:41:55.884Z,8.21
2019-02-19T17:42:57.301Z,8.25
2019-02-19T17:43:58.683Z,8.17
2019-02-19T17:45:00.216Z,8.13
2019-02-19T17:46:01.457Z,8.22
2019-02-19T17:47:02.861Z,8.14
2019-02-19T17:48:04.259Z,8.17
2019-02-19T17:49:05.670Z,8.13
2019-02-19T17:50:07.061Z,8.17
2019-02-19T17:51:08.480Z,8.06
2019-02-19T17:52:09.955Z,8.03
2019-02-19T17:53:11.379Z,8.03
2019-02-19T17:54:12.774Z,8.04
2019-02-19T17:55:14.194Z,7.94
2019-02-19T17:56:15.602Z,8.03
2019-02-19T17:57:17.102Z,7.96
2019-02-19T17:58:18.495Z,7.95
2019-02-19T17:59:19.915Z,8.04
2019-02-19T18:00:21.343Z,7.92
2019-02-19T18:01:22.783Z,8.03
2019-02-19T18:02:24.224Z,8.04
2019-02-19T18:03:25.687Z,8.03
2019-02-19T18:04:27.121Z,8.12
2019-02-19T18:05:28.521Z,7.95
2019-02-19T18:06:29.951Z,7.99
2019-02-19T18:07:31.359Z,8.13
2019-02-19T18:08:33.284Z,7.94
2019-02-19T18:09:34.692Z,7.92
2019-02-19T18:10:36.095Z,8.02
2019-02-19T18:11:37.581Z,8.04
2019-02-19T18:12:39.942Z,8.03
2019-02-19T18:13:41.349Z,8.03
2019-02-19T18:14:42.764Z,7.99
2019-02-19T18:15:44.212Z,7.92
2019-02-19T18:16:45.652Z,8.04
2019-02-19T18:17:47.049Z,7.96
2019-02-19T18:18:48.505Z,8.00
2019-02-19T18:19:49.908Z,7.95
2019-02-19T18:20:52.271Z,7.92
2019-02-19T18:21:53.727Z,7.92
2019-02-19T18:22:55.149Z,7.95
2019-02-19T18:23:56.660Z,8.00
2019-02-19T18:24:58.101Z,7.94
2019-02-19T18:26:00.201Z,7.94
2019-02-19T18:27:01.648Z,7.94
2019-02-19T18:28:03.106Z,7.89
2019-02-19T18:29:04.504Z,8.00
2019-02-19T18:30:05.951Z,7.92
2019-02-19T18:31:07.373Z,8.00
2019-02-19T18:32:08.839Z,7.86
2019-02-19T18:33:10.280Z,8.00
2019-02-19T18:34:11.715Z,7.89
2019-02-19T18:35:13.146Z,7.84
2019-02-19T18:36:14.608Z,7.88
2019-02-19T18:37:16.050Z,7.89
2019-02-19T18:38:17.464Z,7.91
2019-02-19T18:39:18.900Z,7.81
2019-02-19T18:40:20.341Z,7.82
2019-02-19T18:41:21.780Z,7.89
2019-02-19T18:42:23.232Z,7.81
2019-02-19T18:43:24.666Z,7.84
2019-02-19T18:44:27.114Z,7.82
2019-02-19T18:45:28.560Z,7.82
2019-02-19T18:46:30.012Z,7.77
2019-02-19T18:47:31.494Z,7.74
2019-02-19T18:48:33.790Z,7.73
2019-02-19T18:49:35.256Z,7.76
2019-02-19T18:50:36.674Z,7.62
2019-02-19T18:51:38.149Z,7.58
2019-02-19T18:52:39.577Z,7.57
2019-02-19T18:53:41.021Z,7.52
2019-02-19T18:54:42.498Z,7.51
2019-02-19T18:55:43.996Z,7.42
2019-02-19T18:56:45.426Z,7.44
2019-02-19T18:57:46.844Z,7.36
2019-02-19T18:58:48.279Z,7.39
2019-02-19T18:59:49.741Z,7.48
2019-02-19T19:00:51.191Z,7.36
2019-02-19T19:01:52.618Z,7.36
2019-02-19T19:02:54.063Z,7.29
2019-02-19T19:03:55.510Z,7.33
2019-02-19T19:04:56.917Z,7.27
2019-02-19T19:05:58.381Z,7.19
2019-02-19T19:06:59.848Z,7.21
2019-02-19T19:08:01.264Z,7.24
2019-02-19T19:09:02.690Z,7.16
2019-02-19T19:10:04.099Z,7.19
2019-02-19T19:11:05.530Z,7.12
2019-02-19T19:12:07.891Z,7.08
2019-02-19T19:13:09.340Z,7.07
2019-02-19T19:14:10.815Z,7.07
2019-02-19T19:15:12.442Z,6.99
2019-02-19T19:16:13.908Z,6.93
2019-02-19T19:17:15.374Z,6.96
2019-02-19T19:18:20.428Z,6.94
2019-02-19T19:19:22.600Z,6.96
2019-02-19T19:20:24.031Z,6.89
2019-02-19T19:21:27.015Z,6.93
2019-02-19T19:22:27.826Z,6.81
2019-02-19T19:23:29.259Z,6.87
2019-02-19T19:24:30.762Z,6.82
2019-02-19T19:25:32.836Z,6.78
2019-02-19T19:26:34.301Z,6.81
2019-02-19T19:27:35.800Z,6.76
2019-02-19T19:28:37.275Z,6.68
2019-02-19T19:29:38.836Z,6.69
2019-02-19T19:30:42.663Z,6.69
2019-02-19T19:31:45.085Z,6.69
2019-02-19T19:32:48.251Z,6.72
2019-02-19T19:33:50.428Z,6.65
2019-02-19T19:34:51.928Z,6.60
2019-02-19T19:35:55.662Z,6.54
2019-02-19T19:36:55.501Z,6.58
2019-02-19T19:37:57.584Z,6.51
2019-02-19T19:38:59.058Z,6.53
2019-02-19T19:40:01.191Z,6.61
2019-02-19T19:41:03.641Z,6.58
2019-02-19T19:42:05.109Z,6.60
2019-02-19T19:43:09.068Z,6.57
2019-02-19T19:44:11.517Z,6.55
2019-02-19T19:45:13.101Z,6.61
2019-02-19T19:46:14.616Z,6.55
2019-02-19T19:47:17.838Z,6.55
2019-02-19T19:48:21.009Z,6.65
2019-02-19T19:49:24.052Z,6.71
2019-02-19T19:50:26.109Z,6.65
2019-02-19T19:51:27.620Z,6.55
2019-02-19T19:52:29.951Z,6.55
2019-02-19T19:53:32.375Z,6.55
2019-02-19T19:54:35.083Z,6.55
2019-02-19T19:55:39.680Z,6.60
2019-02-19T19:56:41.758Z,6.54
2019-02-19T19:57:46.113Z,6.58
2019-02-19T19:58:49.727Z,6.55
2019-02-19T19:59:51.775Z,6.53
2019-02-19T20:00:54.019Z,6.43
2019-02-19T20:01:55.354Z,6.40
2019-02-19T20:02:57.752Z,6.45
2019-02-19T20:04:00.564Z,6.46
2019-02-19T20:05:02.773Z,6.43
2019-02-19T20:06:04.345Z,6.36
2019-02-19T20:07:05.827Z,6.48
2019-02-19T20:08:08.359Z,6.38
2019-02-19T20:09:10.667Z,6.43
2019-02-19T20:10:12.987Z,6.40
2019-02-19T20:11:16.002Z,6.35
2019-02-19T20:12:18.128Z,6.40
2019-02-19T20:13:21.703Z,6.25
2019-02-19T20:14:24.712Z,6.27
2019-02-19T20:15:26.873Z,6.27
2019-02-19T20:16:28.356Z,6.27
2019-02-19T20:17:31.756Z,6.36
2019-02-19T20:18:39.100Z,6.21
2019-02-19T20:19:39.627Z,6.30
2019-02-19T20:20:42.524Z,6.32
2019-02-19T20:21:48.021Z,6.35
2019-02-19T20:22:51.635Z,6.25
2019-02-19T20:23:54.869Z,6.28
2019-02-19T20:24:58.207Z,6.27
2019-02-19T20:26:01.121Z,6.25
2019-02-19T20:27:03.597Z,6.21
2019-02-19T20:28:05.022Z,6.28
2019-02-19T20:29:07.439Z,6.24
2019-02-19T20:30:10.153Z,6.19
2019-02-19T20:31:12.132Z,6.25
2019-02-19T20:32:16.108Z,6.19
2019-02-19T20:33:18.114Z,6.20
2019-02-19T20:34:20.406Z,6.24
2019-02-19T20:35:23.223Z,6.25
2019-02-19T20:36:27.974Z,6.30
2019-02-19T20:37:31.815Z,6.25
2019-02-19T20:38:34.934Z,6.43
2019-02-19T20:39:38.524Z,6.40
2019-02-19T20:40:41.521Z,6.38
2019-02-19T20:41:43.262Z,6.45
2019-02-19T20:42:46.138Z,6.45
2019-02-19T20:43:47.654Z,6.58
2019-02-19T20:44:49.094Z,6.55
2019-02-19T20:45:53.699Z,6.57
2019-02-19T20:46:55.850Z,6.55
2019-02-19T20:47:59.835Z,6.54
2019-02-19T20:49:00.524Z,6.58
2019-02-19T20:50:02.606Z,6.65
2019-02-19T20:51:06.028Z,6.68
2019-02-19T20:52:07.521Z,6.71
2019-02-19T20:53:09.663Z,6.69
2019-02-19T20:54:12.134Z,6.69
2019-02-19T20:55:14.360Z,6.65
2019-02-19T20:56:16.482Z,6.75
2019-02-19T20:57:17.955Z,6.79
2019-02-19T20:58:19.429Z,6.83
2019-02-19T20:59:22.526Z,6.76
2019-02-19T21:00:22.994Z,6.83
2019-02-19T21:01:26.585Z,6.86
2019-02-19T21:02:28.057Z,6.89
2019-02-19T21:03:29.528Z,6.82
2019-02-19T21:04:30.966Z,6.83
2019-02-19T21:05:33.527Z,6.82
2019-02-19T21:06:36.533Z,6.86
2019-02-19T21:07:37.062Z,6.86
2019-02-19T21:08:39.452Z,6.94
2019-02-19T21:09:43.706Z,6.91
2019-02-19T21:10:42.342Z,6.78
2019-02-19T21:11:44.740Z,6.83
2019-02-19T21:12:46.221Z,6.78
2019-02-19T21:13:48.658Z,6.81
2019-02-19T21:14:50.091Z,6.83
2019-02-19T21:15:51.513Z,6.87
2019-02-19T21:16:52.933Z,6.86
2019-02-19T21:17:55.258Z,6.97
2019-02-19T21:18:56.841Z,6.93
2019-02-19T21:19:58.276Z,6.91
2019-02-19T21:20:59.728Z,6.87
2019-02-19T21:22:01.240Z,6.83
2019-02-19T21:23:03.290Z,6.79
2019-02-19T21:24:05.298Z,6.79
2019-02-19T21:25:06.704Z,6.68
2019-02-19T21:26:09.463Z,6.71
2019-02-19T21:27:10.862Z,6.63
2019-02-19T21:28:12.258Z,6.69
2019-02-19T21:29:13.687Z,6.71
2019-02-19T21:30:15.089Z,6.71
2019-02-19T21:31:17.156Z,6.76
2019-02-19T21:32:18.645Z,6.72
2019-02-19T21:33:20.080Z,6.72
2019-02-19T21:34:21.518Z,6.65
2019-02-19T21:35:22.932Z,6.68
2019-02-19T21:36:24.331Z,6.60
2019-02-19T21:37:26.390Z,6.58
2019-02-19T21:38:27.822Z,6.55
2019-02-19T21:39:29.231Z,6.55
2019-02-19T21:40:30.629Z,6.55
2019-02-19T21:41:32.068Z,6.53
2019-02-19T21:42:33.476Z,6.61
2019-02-19T21:43:34.860Z,6.54
2019-02-19T21:44:36.258Z,6.63
2019-02-19T21:45:37.653Z,6.60
2019-02-19T21:46:39.060Z,6.55
2019-02-19T21:47:40.480Z,6.54
2019-02-19T21:48:48.052Z,6.60
2019-02-19T21:49:44.143Z,6.57
2019-02-19T21:50:45.612Z,6.54
2019-02-19T21:51:53.881Z,6.54
2019-02-19T21:52:48.368Z,6.68
2019-02-19T21:53:49.756Z,6.72
2019-02-19T21:54:51.147Z,6.71
2019-02-19T21:55:52.535Z,6.68
2019-02-19T21:56:53.927Z,6.81
2019-02-19T21:57:55.319Z,6.90
2019-02-19T21:58:56.713Z,6.90
2019-02-19T21:59:58.145Z,6.81
2019-02-19T22:00:59.533Z,6.82
2019-02-19T22:02:00.931Z,6.81
2019-02-19T22:03:02.421Z,6.86
2019-02-19T22:04:03.815Z,6.89
2019-02-19T22:05:05.203Z,6.91
2019-02-19T22:06:06.690Z,6.94
2019-02-19T22:07:08.086Z,6.97
2019-02-19T22:08:09.472Z,6.97
2019-02-19T22:09:11.017Z,6.97
2019-02-19T22:10:12.412Z,6.97
2019-02-19T22:11:13.798Z,6.99
2019-02-19T22:12:15.315Z,6.97
2019-02-19T22:13:16.704Z,6.96
2019-02-19T22:14:18.094Z,7.11
2019-02-19T22:15:19.480Z,6.97
2019-02-19T22:16:20.871Z,7.05
2019-02-19T22:17:22.266Z,7.09
2019-02-19T22:18:23.737Z,7.01
2019-02-19T22:19:25.138Z,7.11
2019-02-19T22:20:26.520Z,7.04
2019-02-19T22:21:27.916Z,7.04
2019-02-19T22:22:29.348Z,7.00
2019-02-19T22:23:30.759Z,7.04
2019-02-19T22:24:32.147Z,7.09
2019-02-19T22:25:33.580Z,7.05
2019-02-19T22:26:34.976Z,6.94
2019-02-19T22:27:36.369Z,6.99
2019-02-19T22:28:37.845Z,6.93
2019-02-19T22:29:39.348Z,6.97
2019-02-19T22:30:40.735Z,6.96
2019-02-19T22:31:42.121Z,6.96
2019-02-19T22:32:43.511Z,6.97
2019-02-19T22:33:44.961Z,7.00
2019-02-19T22:34:46.355Z,6.97
2019-02-19T22:35:47.734Z,6.96
2019-02-19T22:36:49.134Z,6.99
2019-02-19T22:37:50.532Z,6.96
2019-02-19T22:38:51.912Z,7.00
2019-02-19T22:39:53.303Z,6.97
2019-02-19T22:40:55.456Z,7.04
2019-02-19T22:41:56.042Z,7.09
2019-02-19T22:42:57.440Z,7.04
2019-02-19T22:43:58.845Z,7.08
2019-02-19T22:45:00.252Z,7.07
2019-02-19T22:46:01.638Z,7.07
2019-02-19T22:47:03.031Z,7.05
2019-02-19T22:48:04.880Z,7.05
2019-02-19T22:49:06.260Z,6.90
2019-02-19T22:50:07.774Z,6.96
2019-02-19T22:51:09.185Z,6.83
2019-02-19T22:52:12.568Z,6.82
2019-02-19T22:53:11.945Z,6.78
2019-02-19T22:54:13.331Z,6.79
2019-02-19T22:55:14.736Z,6.86
2019-02-19T22:56:16.168Z,6.86
2019-02-19T22:57:17.609Z,6.81
2019-02-19T22:58:19.011Z,6.76
2019-02-19T22:59:20.401Z,6.87
2019-02-19T23:00:21.813Z,6.78
2019-02-19T23:01:23.209Z,6.87
2019-02-19T23:02:24.615Z,6.96
2019-02-19T23:03:26.011Z,6.96
2019-02-19T23:04:27.414Z,6.96
2019-02-19T23:05:28.824Z,6.97
2019-02-19T23:06:30.224Z,6.91
2019-02-19T23:07:31.616Z,6.94
2019-02-19T23:08:33.022Z,6.99
2019-02-19T23:09:34.438Z,7.09
2019-02-19T23:10:35.814Z,7.00
2019-02-19T23:11:37.222Z,7.08
2019-02-19T23:12:38.612Z,7.01
2019-02-19T23:13:40.022Z,7.04
2019-02-19T23:14:41.418Z,7.04
2019-02-19T23:15:42.810Z,7.04
2019-02-19T23:16:44.249Z,7.12
2019-02-19T23:17:45.671Z,7.05
2019-02-19T23:18:47.082Z,6.97
2019-02-19T23:19:48.470Z,7.05
2019-02-19T23:20:49.865Z,7.01
2019-02-19T23:21:51.281Z,7.01
2019-02-19T23:22:52.693Z,7.00
2019-02-19T23:23:54.109Z,6.97
2019-02-19T23:24:55.529Z,6.97
2019-02-19T23:25:56.922Z,6.94
2019-02-19T23:26:58.326Z,6.82
2019-02-19T23:27:59.758Z,6.83
2019-02-19T23:29:01.185Z,6.83
2019-02-19T23:30:02.674Z,6.81
2019-02-19T23:31:04.097Z,6.83
2019-02-19T23:32:05.532Z,6.81
2019-02-19T23:33:06.990Z,6.79
2019-02-19T23:34:08.491Z,6.86
2019-02-19T23:35:09.964Z,6.91
2019-02-19T23:36:11.459Z,6.94
2019-02-19T23:37:12.842Z,6.90
2019-02-19T23:38:14.248Z,6.93
2019-02-19T23:39:15.659Z,6.97
2019-02-19T23:40:17.054Z,6.91
2019-02-19T23:41:18.456Z,6.91
2019-02-19T23:42:19.847Z,6.89
2019-02-19T23:43:21.251Z,6.87
2019-02-19T23:44:22.780Z,6.83
2019-02-19T23:45:24.254Z,6.83
2019-02-19T23:46:25.766Z,6.81
2019-02-19T23:47:27.248Z,6.76
2019-02-19T23:48:28.711Z,6.82
2019-02-19T23:49:30.189Z,6.71
2019-02-19T23:50:31.612Z,6.65
2019-02-19T23:51:33.135Z,6.73
2019-02-19T23:52:34.647Z,6.69
2019-02-19T23:53:36.134Z,6.58
2019-02-19T23:54:37.587Z,6.55
2019-02-19T23:55:39.037Z,6.58
2019-02-19T23:56:40.525Z,6.55
2019-02-19T23:57:41.974Z,6.50
2019-02-19T23:58:43.419Z,6.48
2019-02-19T23:59:44.873Z,6.45
